createdAt,value
2023-01-08T00:01:27.698Z,3.20
2023-01-08T00:04:13.204Z,2.63
2023-01-08T00:06:58.356Z,2.90
2023-01-08T00:09:43.827Z,3.10
2023-01-08T00:12:29.399Z,3.23
2023-01-08T00:15:14.623Z,2.90
2023-01-08T00:18:00.081Z,2.80
2023-01-08T00:20:47.107Z,2.73
2023-01-08T00:23:33.137Z,2.90
2023-01-08T00:26:18.653Z,3.10
2023-01-08T00:29:05.578Z,2.87
2023-01-08T00:31:50.934Z,2.83
2023-01-08T00:34:36.301Z,2.60
2023-01-08T00:37:21.556Z,3.00
2023-01-08T00:40:09.807Z,2.60
2023-01-08T00:42:55.159Z,3.00
2023-01-08T00:45:40.403Z,2.60
2023-01-08T00:48:25.809Z,2.43
2023-01-08T00:51:11.439Z,2.60
2023-01-08T00:53:56.764Z,3.27
2023-01-08T00:56:42.057Z,2.50
2023-01-08T00:59:27.334Z,2.83
2023-01-08T01:02:13.152Z,2.97
2023-01-08T01:04:58.424Z,2.73
2023-01-08T01:07:44.664Z,2.73
2023-01-08T01:10:30.033Z,2.77
2023-01-08T01:13:15.296Z,2.70
2023-01-08T01:16:02.109Z,2.63
2023-01-08T01:18:47.532Z,2.90
2023-01-08T01:21:33.273Z,2.70
2023-01-08T01:24:18.513Z,2.53
2023-01-08T01:27:03.903Z,2.70
2023-01-08T01:29:49.303Z,2.70
2023-01-08T01:32:34.620Z,2.73
2023-01-08T01:35:19.910Z,2.83
2023-01-08T01:38:05.261Z,2.50
2023-01-08T01:40:50.591Z,2.53
2023-01-08T01:43:39.437Z,2.40
2023-01-08T01:46:33.587Z,2.90
2023-01-08T01:49:22.966Z,2.57
2023-01-08T01:52:09.806Z,2.40
2023-01-08T01:54:55.536Z,2.43
2023-01-08T01:57:49.113Z,2.77
2023-01-08T02:00:35.760Z,2.37
2023-01-08T02:03:24.077Z,2.40
2023-01-08T02:06:12.059Z,2.70
2023-01-08T02:09:12.432Z,2.13
2023-01-08T02:12:23.309Z,2.60
2023-01-08T02:15:47.309Z,2.23
2023-01-08T02:18:45.857Z,2.53
2023-01-08T02:22:12.865Z,2.30
2023-01-08T02:25:01.136Z,2.30
2023-01-08T02:27:51.217Z,1.90
2023-01-08T02:30:36.969Z,2.40
2023-01-08T02:33:23.931Z,2.10
2023-01-08T02:36:39.755Z,2.10
2023-01-08T02:40:06.120Z,2.47
2023-01-08T02:42:59.018Z,2.50
2023-01-08T02:45:48.757Z,2.42
2023-01-08T02:48:57.105Z,2.47
2023-01-08T02:51:52.666Z,2.00
2023-01-08T02:54:39.912Z,2.10
2023-01-08T02:57:27.019Z,2.17
2023-01-08T03:00:13.311Z,2.13
2023-01-08T03:03:15.837Z,2.30
2023-01-08T03:06:17.999Z,2.42
2023-01-08T03:09:04.227Z,2.20
2023-01-08T03:12:08.051Z,2.13
2023-01-08T03:15:01.843Z,2.10
2023-01-08T03:17:50.411Z,2.30
2023-01-08T03:20:38.027Z,1.87
2023-01-08T03:23:26.728Z,1.90
2023-01-08T03:26:17.640Z,2.00
2023-01-08T03:29:05.024Z,1.97
2023-01-08T03:31:53.244Z,2.20
2023-01-08T03:34:42.020Z,2.00
2023-01-08T03:37:33.170Z,1.70
2023-01-08T03:40:43.104Z,1.97
2023-01-08T03:43:29.273Z,2.13
2023-01-08T03:46:23.345Z,1.90
2023-01-08T03:49:09.405Z,2.00
2023-01-08T03:51:54.787Z,2.10
2023-01-08T03:54:40.057Z,2.30
2023-01-08T03:57:25.626Z,1.87
2023-01-08T04:00:11.924Z,1.80
2023-01-08T04:02:57.532Z,2.20
2023-01-08T04:05:43.191Z,2.27
2023-01-08T04:08:28.461Z,2.30
2023-01-08T04:11:13.986Z,2.10
2023-01-08T04:13:59.616Z,1.90
2023-01-08T04:16:45.568Z,1.83
2023-01-08T04:19:30.956Z,1.87
2023-01-08T04:22:16.366Z,1.90
2023-01-08T04:25:01.689Z,1.90
2023-01-08T04:27:47.058Z,2.23
2023-01-08T04:30:32.398Z,1.97
2023-01-08T04:33:17.823Z,1.77
2023-01-08T04:36:04.486Z,1.70
2023-01-08T04:38:49.828Z,1.83
2023-01-08T04:41:35.169Z,1.97
2023-01-08T04:44:20.699Z,1.90
2023-01-08T04:47:05.991Z,1.70
2023-01-08T04:49:51.336Z,1.77
2023-01-08T04:52:36.645Z,1.73
2023-01-08T04:55:21.999Z,1.90
2023-01-08T04:58:07.606Z,1.83
2023-01-08T05:00:52.861Z,1.90
2023-01-08T05:03:38.369Z,1.70
2023-01-08T05:06:24.215Z,1.90
2023-01-08T05:09:09.910Z,1.70
2023-01-08T05:11:55.231Z,1.80
2023-01-08T05:14:40.366Z,1.80
2023-01-08T05:17:25.765Z,1.80
2023-01-08T05:20:11.252Z,1.60
2023-01-08T05:22:58.451Z,2.10
2023-01-08T05:25:44.065Z,1.80
2023-01-08T05:28:29.484Z,1.60
2023-01-08T05:31:15.747Z,2.00
2023-01-08T05:34:01.229Z,1.90
2023-01-08T05:36:46.591Z,1.80
2023-01-08T05:39:31.779Z,1.77
2023-01-08T05:42:17.118Z,2.47
2023-01-08T05:45:04.194Z,2.63
2023-01-08T05:47:49.678Z,2.90
2023-01-08T05:50:35.627Z,2.90
2023-01-08T05:53:21.163Z,2.73
2023-01-08T05:56:09.401Z,2.47
2023-01-08T05:58:55.989Z,2.83
2023-01-08T06:01:41.501Z,2.43
2023-01-08T06:04:27.063Z,2.47
2023-01-08T06:07:12.330Z,2.90
2023-01-08T06:09:57.544Z,2.50
2023-01-08T06:12:42.791Z,2.50
2023-01-08T06:15:28.018Z,2.33
2023-01-08T06:18:13.565Z,2.50
2023-01-08T06:20:59.468Z,2.30
2023-01-08T06:23:45.588Z,2.60
2023-01-08T06:26:31.290Z,2.07
2023-01-08T06:29:16.752Z,2.10
2023-01-08T06:32:02.162Z,2.23
2023-01-08T06:34:47.634Z,6.20
2023-01-08T06:37:32.728Z,3.60
2023-01-08T06:40:18.361Z,3.57
2023-01-08T06:43:05.583Z,3.73
2023-01-08T06:45:55.265Z,2.93
2023-01-08T06:48:40.976Z,3.60
2023-01-08T06:51:26.230Z,3.23
2023-01-08T06:54:13.507Z,2.90
2023-01-08T06:56:58.997Z,2.70
2023-01-08T06:59:44.326Z,2.80
2023-01-08T07:02:30.169Z,3.33
2023-01-08T07:05:15.897Z,3.77
2023-01-08T07:08:01.579Z,3.47
2023-01-08T07:10:47.370Z,3.20
2023-01-08T07:13:32.826Z,3.63
2023-01-08T07:16:18.180Z,3.37
2023-01-08T07:19:03.984Z,3.00
2023-01-08T07:21:49.630Z,2.70
2023-01-08T07:24:35.351Z,2.87
2023-01-08T07:27:20.735Z,3.13
2023-01-08T07:30:08.382Z,3.50
2023-01-08T07:33:00.461Z,3.50
2023-01-08T07:35:54.682Z,3.43
2023-01-08T07:38:40.478Z,3.37
2023-01-08T07:41:26.569Z,3.47
2023-01-08T07:44:13.211Z,3.10
2023-01-08T07:46:58.787Z,3.07
2023-01-08T07:49:44.599Z,2.93
2023-01-08T07:52:30.074Z,2.80
2023-01-08T07:55:15.698Z,2.97
2023-01-08T07:58:01.198Z,3.10
2023-01-08T08:00:47.288Z,2.67
2023-01-08T08:03:32.743Z,2.97
2023-01-08T08:06:18.304Z,2.50
2023-01-08T08:09:04.054Z,2.90
2023-01-08T08:11:49.433Z,2.70
2023-01-08T08:14:34.706Z,2.57
2023-01-08T08:17:20.051Z,4.50
2023-01-08T08:20:05.955Z,3.00
2023-01-08T08:22:51.393Z,3.07
2023-01-08T08:25:37.448Z,3.10
2023-01-08T08:28:22.845Z,3.13
2023-01-08T08:31:08.420Z,3.10
2023-01-08T08:33:53.911Z,2.77
2023-01-08T08:36:41.384Z,2.73
2023-01-08T08:39:28.016Z,2.67
2023-01-08T08:42:13.443Z,2.63
2023-01-08T08:44:59.157Z,2.57
2023-01-08T08:47:45.686Z,2.57
2023-01-08T08:50:31.113Z,2.20
2023-01-08T08:53:16.749Z,2.67
2023-01-08T08:56:02.498Z,2.67
2023-01-08T08:58:50.611Z,2.70
2023-01-08T09:01:36.356Z,2.80
2023-01-08T09:04:22.246Z,2.80
2023-01-08T09:07:07.936Z,5.87
2023-01-08T09:09:53.337Z,3.60
2023-01-08T09:12:38.743Z,3.43
2023-01-08T09:15:24.477Z,2.80
2023-01-08T09:18:10.671Z,3.33
2023-01-08T09:20:56.352Z,3.10
2023-01-08T09:23:46.137Z,2.80
2023-01-08T09:26:31.767Z,3.20
2023-01-08T09:29:18.385Z,3.17
2023-01-08T09:32:07.267Z,2.70
2023-01-08T09:34:52.793Z,2.83
2023-01-08T09:37:38.085Z,2.67
2023-01-08T09:40:28.432Z,2.73
2023-01-08T09:43:20.727Z,2.70
2023-01-08T09:46:08.488Z,2.92
2023-01-08T09:48:59.007Z,3.17
2023-01-08T09:51:44.800Z,2.73
2023-01-08T09:54:30.327Z,2.57
2023-01-08T09:57:21.180Z,2.40
2023-01-08T10:00:28.258Z,2.83
2023-01-08T10:03:13.431Z,2.60
2023-01-08T10:05:59.888Z,3.00
2023-01-08T10:11:42.963Z,3.33
2023-01-08T10:14:31.791Z,3.10
2023-01-08T10:17:28.199Z,2.90
2023-01-08T10:20:24.895Z,3.30
2023-01-08T10:23:16.785Z,2.87
2023-01-08T10:26:04.430Z,3.13
2023-01-08T10:28:50.180Z,5.63
2023-01-08T10:31:46.045Z,3.73
2023-01-08T10:34:52.718Z,2.83
2023-01-08T10:37:43.141Z,3.20
2023-01-08T10:40:34.255Z,3.40
2023-01-08T10:43:25.335Z,2.83
2023-01-08T10:46:22.588Z,3.07
2023-01-08T10:49:17.462Z,3.07
2023-01-08T10:52:02.917Z,2.90
2023-01-08T10:54:48.208Z,3.00
2023-01-08T10:57:34.532Z,2.97
2023-01-08T11:00:32.614Z,2.87
2023-01-08T11:03:31.077Z,3.10
2023-01-08T11:06:22.612Z,2.63
2023-01-08T11:09:27.719Z,2.93
2023-01-08T11:12:33.133Z,2.90
2023-01-08T11:15:18.715Z,2.57
2023-01-08T11:18:05.764Z,3.70
2023-01-08T11:20:53.407Z,4.40
2023-01-08T11:23:38.827Z,3.53
2023-01-08T11:26:24.181Z,3.13
2023-01-08T11:29:22.465Z,3.23
2023-01-08T11:32:07.959Z,2.63
2023-01-08T11:35:03.285Z,3.00
2023-01-08T11:37:54.414Z,3.00
2023-01-08T11:41:00.148Z,3.13
2023-01-08T11:43:46.600Z,2.63
2023-01-08T11:46:50.970Z,2.93
2023-01-08T11:49:58.683Z,3.23
2023-01-08T11:53:12.294Z,2.97
2023-01-08T11:56:00.725Z,2.58
2023-01-08T11:59:07.429Z,2.73
2023-01-08T12:02:41.546Z,2.87
2023-01-08T12:08:18.717Z,2.47
2023-01-08T12:11:04.461Z,2.70
2023-01-08T12:14:08.330Z,2.60
2023-01-08T12:17:25.735Z,2.90
2023-01-08T12:20:29.414Z,2.60
2023-01-08T12:23:45.269Z,2.73
2023-01-08T12:27:03.659Z,2.97
2023-01-08T12:30:12.433Z,3.27
2023-01-08T12:33:05.781Z,3.00
2023-01-08T12:35:54.859Z,3.07
2023-01-08T12:38:44.781Z,2.90
2023-01-08T12:41:34.069Z,3.00
2023-01-08T12:44:26.606Z,2.97
2023-01-08T12:47:19.583Z,2.92
2023-01-08T12:50:07.772Z,2.53
2023-01-08T12:53:13.627Z,2.87
2023-01-08T12:56:07.882Z,2.60
2023-01-08T12:59:04.864Z,3.07
2023-01-08T13:02:04.563Z,3.30
2023-01-08T13:04:50.259Z,3.57
2023-01-08T13:07:51.309Z,3.17
2023-01-08T13:10:55.973Z,3.47
2023-01-08T13:13:45.205Z,4.20
2023-01-08T13:16:35.077Z,3.70
2023-01-08T13:19:23.349Z,4.00
2023-01-08T13:22:41.792Z,3.90
2023-01-08T13:25:31.094Z,3.77
2023-01-08T13:28:46.228Z,3.43
2023-01-08T13:31:41.296Z,3.33
2023-01-08T13:34:40.203Z,3.43
2023-01-08T13:37:27.747Z,3.60
2023-01-08T13:40:49.778Z,3.57
2023-01-08T13:43:39.063Z,3.40
2023-01-08T13:46:25.185Z,2.67
2023-01-08T13:49:41.020Z,3.30
2023-01-08T13:52:35.192Z,3.27
2023-01-08T13:55:42.836Z,3.03
2023-01-08T13:58:49.320Z,3.33
2023-01-08T14:01:51.462Z,3.00
2023-01-08T14:04:36.838Z,2.80
2023-01-08T14:07:23.731Z,3.03
2023-01-08T14:10:14.603Z,2.90
2023-01-08T14:13:07.697Z,3.10
2023-01-08T14:15:53.310Z,3.03
2023-01-08T14:18:43.943Z,2.90
2023-01-08T14:21:30.909Z,2.97
2023-01-08T14:24:20.435Z,3.37
2023-01-08T14:27:20.690Z,2.80
2023-01-08T14:30:17.004Z,3.00
2023-01-08T14:33:03.578Z,2.57
2023-01-08T14:35:51.389Z,3.07
2023-01-08T14:38:37.342Z,2.70
2023-01-08T14:41:53.130Z,2.87
2023-01-08T14:44:42.443Z,2.50
2023-01-08T14:47:37.339Z,3.13
2023-01-08T14:50:33.136Z,2.57
2023-01-08T14:53:22.056Z,2.47
2023-01-08T14:56:13.581Z,2.60
2023-01-08T14:59:00.577Z,2.50
2023-01-08T15:01:54.095Z,2.63
2023-01-08T15:04:39.824Z,2.40
2023-01-08T15:07:29.727Z,2.70
2023-01-08T15:10:41.592Z,2.90
2023-01-08T15:13:32.788Z,3.00
2023-01-08T15:16:30.336Z,2.80
2023-01-08T15:19:19.345Z,2.40
2023-01-08T15:22:04.727Z,2.60
2023-01-08T15:24:58.622Z,2.60
2023-01-08T15:27:54.875Z,2.40
2023-01-08T15:30:46.533Z,2.60
2023-01-08T15:33:32.073Z,2.63
2023-01-08T15:36:17.441Z,2.80
2023-01-08T15:39:04.132Z,2.80
2023-01-08T15:47:52.634Z,2.30
2023-01-08T15:50:40.155Z,2.50
2023-01-08T15:53:25.011Z,2.30
2023-01-08T15:56:09.563Z,2.60
2023-01-08T15:58:54.343Z,2.17
2023-01-08T16:01:39.147Z,2.33
2023-01-08T16:04:25.541Z,2.63
2023-01-08T16:07:11.365Z,2.30
2023-01-08T16:09:57.085Z,2.60
2023-01-08T16:12:43.542Z,2.43
2023-01-08T16:15:31.011Z,2.27
2023-01-08T16:18:17.188Z,2.13
2023-01-08T16:21:02.794Z,2.20
2023-01-08T16:23:48.182Z,2.40
2023-01-08T16:26:33.596Z,2.50
2023-01-08T16:29:19.282Z,2.37
2023-01-08T16:32:05.365Z,2.47
2023-01-08T16:34:50.635Z,2.50
2023-01-08T16:37:36.091Z,2.20
2023-01-08T16:40:21.821Z,2.30
2023-01-08T16:43:11.383Z,2.30
2023-01-08T16:45:57.280Z,2.40
2023-01-08T16:48:42.836Z,2.23
2023-01-08T16:51:28.349Z,2.33
2023-01-08T16:54:15.544Z,2.10
2023-01-08T16:57:01.248Z,3.03
2023-01-08T16:59:46.451Z,3.33
2023-01-08T17:02:31.956Z,3.10
2023-01-08T17:05:17.227Z,2.87
2023-01-08T17:08:02.535Z,2.70
2023-01-08T17:10:48.477Z,2.87
2023-01-08T17:13:33.691Z,3.70
2023-01-08T17:16:19.783Z,3.17
2023-01-08T17:19:05.339Z,3.10
2023-01-08T17:21:50.954Z,2.70
2023-01-08T17:24:36.758Z,2.70
2023-01-08T17:27:22.348Z,2.80
2023-01-08T17:30:11.893Z,2.57
2023-01-08T17:32:57.648Z,2.70
2023-01-08T17:35:42.835Z,2.60
2023-01-08T17:38:28.691Z,2.80
2023-01-08T17:41:34.569Z,2.60
2023-01-08T17:44:20.756Z,2.63
2023-01-08T17:47:06.018Z,4.50
2023-01-08T17:49:52.833Z,3.03
2023-01-08T17:52:39.019Z,3.17
2023-01-08T17:55:26.500Z,2.70
2023-01-08T17:58:12.681Z,2.30
2023-01-08T18:01:00.317Z,2.73
2023-01-08T18:03:46.512Z,2.50
2023-01-08T18:06:32.194Z,2.80
2023-01-08T18:14:48.849Z,2.80
2023-01-08T18:17:34.487Z,2.80
2023-01-08T18:20:19.686Z,2.70
2023-01-08T18:23:04.927Z,2.80
2023-01-08T18:25:50.151Z,3.10
2023-01-08T18:28:35.960Z,2.80
2023-01-08T18:31:21.939Z,2.40
2023-01-08T18:34:09.174Z,2.53
2023-01-08T18:36:54.453Z,2.70
2023-01-08T18:39:39.565Z,3.27
2023-01-08T18:42:27.788Z,3.63
2023-01-08T18:45:15.152Z,3.33
2023-01-08T18:48:02.750Z,3.40
2023-01-08T18:50:49.731Z,2.50
2023-01-08T18:53:35.566Z,3.30
2023-01-08T18:56:26.823Z,3.40
2023-01-08T18:59:14.936Z,3.57
2023-01-08T19:02:00.795Z,3.17
2023-01-08T19:04:46.348Z,3.57
2023-01-08T19:07:32.324Z,3.00
2023-01-08T19:10:17.986Z,2.80
2023-01-08T19:13:05.051Z,3.17
2023-01-08T19:15:50.320Z,3.43
2023-01-08T19:18:36.157Z,2.87
2023-01-08T19:21:22.466Z,3.90
2023-01-08T19:24:08.837Z,3.97
2023-01-08T19:26:54.672Z,4.03
2023-01-08T19:29:41.114Z,4.60
2023-01-08T19:32:27.924Z,4.57
2023-01-08T19:35:14.299Z,4.33
2023-01-08T19:38:00.018Z,4.40
2023-01-08T19:40:46.219Z,4.40
2023-01-08T19:43:44.505Z,3.90
2023-01-08T19:46:32.164Z,4.73
2023-01-08T19:49:20.342Z,5.10
2023-01-08T19:52:06.533Z,4.63
2023-01-08T19:54:52.277Z,4.33
2023-01-08T19:57:38.986Z,4.97
2023-01-08T20:00:25.525Z,4.37
2023-01-08T20:03:12.223Z,4.43
2023-01-08T20:05:58.060Z,4.50
2023-01-08T20:08:46.151Z,3.77
2023-01-08T20:11:31.999Z,4.10
2023-01-08T20:14:19.847Z,4.27
2023-01-08T20:17:07.436Z,3.93
2023-01-08T20:19:53.038Z,4.20
2023-01-08T20:22:38.368Z,4.20
2023-01-08T20:25:25.856Z,4.03
2023-01-08T20:28:11.044Z,4.17
2023-01-08T20:30:57.472Z,3.87
2023-01-08T20:33:43.791Z,4.63
2023-01-08T20:36:32.260Z,4.40
2023-01-08T20:39:18.342Z,4.00
2023-01-08T20:42:04.841Z,4.10
2023-01-08T20:44:50.607Z,4.30
2023-01-08T20:47:36.408Z,4.03
2023-01-08T20:50:22.212Z,4.30
2023-01-08T20:53:08.099Z,4.07
2023-01-08T20:55:54.060Z,4.07
2023-01-08T20:58:41.329Z,4.20
2023-01-08T21:01:31.236Z,4.07
2023-01-08T21:04:16.910Z,3.80
2023-01-08T21:07:01.890Z,4.03
2023-01-08T21:09:47.113Z,3.73
2023-01-08T21:12:32.676Z,3.53
2023-01-08T21:15:18.339Z,3.40
2023-01-08T21:18:04.293Z,4.03
2023-01-08T21:20:49.688Z,3.23
2023-01-08T21:23:34.735Z,3.60
2023-01-08T21:26:20.209Z,3.30
2023-01-08T21:29:07.000Z,3.30
2023-01-08T21:31:52.549Z,3.43
2023-01-08T21:34:37.607Z,3.67
2023-01-08T21:37:22.904Z,3.77
2023-01-08T21:40:08.896Z,3.50
2023-01-08T21:43:13.057Z,3.50
2023-01-08T21:46:01.631Z,3.30
2023-01-08T21:48:51.993Z,3.30
2023-01-08T21:51:55.753Z,3.40
2023-01-08T21:54:40.975Z,2.90
2023-01-08T21:57:29.620Z,3.27
2023-01-08T22:00:15.498Z,3.40
2023-01-08T22:03:00.908Z,3.20
2023-01-08T22:06:00.489Z,3.30
2023-01-08T22:08:51.189Z,3.53
2023-01-08T22:11:36.870Z,3.30
2023-01-08T22:14:22.093Z,3.03
2023-01-08T22:17:10.292Z,3.27
2023-01-08T22:19:57.857Z,3.40
2023-01-08T22:22:47.063Z,2.90
2023-01-08T22:25:32.522Z,3.00
2023-01-08T22:28:17.832Z,3.00
2023-01-08T22:31:07.474Z,3.23
2023-01-08T22:33:54.791Z,2.90
2023-01-08T22:36:39.912Z,3.07
2023-01-08T22:39:25.446Z,3.20
2023-01-08T22:42:10.434Z,3.30
2023-01-08T22:44:55.622Z,3.20
2023-01-08T22:47:40.892Z,3.07
2023-01-08T22:50:26.140Z,2.60
2023-01-08T22:53:11.678Z,3.00
2023-01-08T22:55:57.258Z,2.70
2023-01-08T22:58:45.316Z,2.73
2023-01-08T23:01:30.853Z,3.10
2023-01-08T23:04:16.010Z,2.93
2023-01-08T23:07:01.181Z,2.93
2023-01-08T23:09:47.667Z,2.93
2023-01-08T23:12:34.396Z,2.80
2023-01-08T23:15:20.809Z,3.23
2023-01-08T23:18:05.991Z,2.43
2023-01-08T23:20:51.224Z,3.23
2023-01-08T23:23:36.919Z,3.03
2023-01-08T23:26:28.866Z,2.90
2023-01-08T23:29:14.405Z,2.90
2023-01-08T23:31:59.802Z,3.10
2023-01-08T23:34:45.167Z,2.93
2023-01-08T23:37:30.474Z,3.00
2023-01-08T23:40:16.135Z,2.50
2023-01-08T23:43:01.551Z,2.90
2023-01-08T23:45:46.845Z,3.10
2023-01-08T23:48:32.057Z,2.80
2023-01-08T23:51:17.676Z,2.90
2023-01-08T23:54:03.566Z,2.77
2023-01-08T23:56:49.397Z,3.33
2023-01-08T23:59:34.635Z,2.87
